^^

..:: Storico WU ::..




Lo storico viene creato da WUnderground con i dati che la stazione Meteomincio invia al loro server. L' aggiornamento viene fatto ogni 5 minuti circa, tuttavia possono esserci intervalli pi ampi a causa di errori, interruzioni di servizio o problemi nell' invio tramite FTP.


Storico stazione MeteoMincio
 
Giorno Sommario per Maggio 06, 2021 Unità:  Metrico    Inglese   Entrambi
Giorno Settimana Mese Anno
  Corrente: Max: Min: Media:
Temperatura: 20.1 °C 20.1 °C 11.6 °C 14.5 °C
Dew Point: 12.2 °C 12.6 °C 9.1 °C 10.3 °C
Umidità: 61% 89% 61% 77%
Velocità vento: 16km/h 28km/h 2km/h 14.3km/h
Raffica: 27km/h 39km/h - -
DirezioneESE - - ESE
Pressione: 1011.1 hPa 1012.7 hPa 1007.7 hPa -
Precipitazioni: 0.00 mm      
 
 
Tabulato Dati per Maggio 06, 2021
Ora Temperatura Dew Point Pressione Direzione Velocità vento Raffica Umidità Intensità pioggia (oraria) Info solare Situazione
00:59 14.7 °C 10.6 °C 1007.8 hPa WSW 8 km/h 10 km/h 77% 0.00 mm 0.00 W/m2 unknown
01:09 14.5 °C 10.5 °C 1007.8 hPa SW 8 km/h 11 km/h 77% 0.00 mm 0.00 W/m2 unknown
01:14 14.5 °C 10.5 °C 1007.8 hPa SW 8 km/h 11 km/h 77% 0.00 mm 0.00 W/m2 unknown
01:19 14.4 °C 10.4 °C 1007.7 hPa WSW 7 km/h 10 km/h 77% 0.00 mm 0.00 W/m2 unknown
01:24 14.4 °C 10.5 °C 1007.8 hPa WSW 6 km/h 10 km/h 78% 0.00 mm 0.00 W/m2 unknown
01:29 14.2 °C 10.4 °C 1007.8 hPa SW 5 km/h 6 km/h 78% 0.00 mm 0.00 W/m2 unknown
01:34 14.1 °C 10.4 °C 1007.7 hPa WSW 4 km/h 6 km/h 79% 0.00 mm 0.00 W/m2 unknown
01:39 14.1 °C 10.3 °C 1007.8 hPa WSW 3 km/h 6 km/h 79% 0.00 mm 0.00 W/m2 unknown
01:44 13.9 °C 10.3 °C 1008.0 hPa North 6 km/h 8 km/h 80% 0.00 mm 0.00 W/m2 unknown
01:49 13.6 °C 10.2 °C 1008.0 hPa NNE 6 km/h 8 km/h 81% 0.00 mm 0.00 W/m2 unknown
01:54 13.5 °C 10.3 °C 1008.0 hPa North 3 km/h 8 km/h 81% 0.00 mm 0.00 W/m2 unknown
01:59 13.5 °C 10.3 °C 1008.1 hPa NNE 8 km/h 10 km/h 82% 0.00 mm 0.00 W/m2 unknown
02:04 13.3 °C 10.3 °C 1008.2 hPa NNE 8 km/h 10 km/h 82% 0.00 mm 0.00 W/m2 unknown
02:09 13.4 °C 10.4 °C 1008.2 hPa WNW 4 km/h 10 km/h 82% 0.00 mm 0.00 W/m2 unknown
02:14 13.3 °C 10.3 °C 1008.4 hPa North 5 km/h 6 km/h 83% 0.00 mm 0.00 W/m2 unknown
02:19 13.2 °C 10.3 °C 1008.4 hPa North 4 km/h 6 km/h 83% 0.00 mm 0.00 W/m2 unknown
02:24 13.3 °C 10.3 °C 1008.4 hPa NNW 2 km/h 5 km/h 82% 0.00 mm 0.00 W/m2 unknown
02:29 13.3 °C 10.3 °C 1008.4 hPa NNW 2 km/h 3 km/h 83% 0.00 mm 0.00 W/m2 unknown
02:34 13.1 °C 10.3 °C 1008.4 hPa NE 3 km/h 4 km/h 84% 0.00 mm 0.00 W/m2 unknown
02:39 12.7 °C 10.1 °C 1008.2 hPa East 3 km/h 6 km/h 85% 0.00 mm 0.00 W/m2 unknown
02:44 12.4 °C 10.0 °C 1008.2 hPa ESE 4 km/h 6 km/h 85% 0.00 mm 0.00 W/m2 unknown
02:49 12.2 °C 9.8 °C 1008.1 hPa SE 2 km/h 5 km/h 86% 0.00 mm 0.00 W/m2 unknown
02:54 12.0 °C 9.8 °C 1008.2 hPa SE 3 km/h 4 km/h 87% 0.00 mm 0.00 W/m2 unknown
02:59 11.9 °C 9.8 °C 1008.2 hPa SE 3 km/h 4 km/h 87% 0.00 mm 0.00 W/m2 unknown
03:04 11.8 °C 9.7 °C 1008.3 hPa SE 2 km/h 4 km/h 87% 0.00 mm 0.00 W/m2 unknown
03:09 11.9 °C 9.8 °C 1008.2 hPa SE 3 km/h 4 km/h 87% 0.00 mm 0.00 W/m2 unknown
03:14 11.9 °C 9.8 °C 1008.2 hPa SE 3 km/h 4 km/h 87% 0.00 mm 0.00 W/m2 unknown
03:19 11.7 °C 9.7 °C 1008.2 hPa SE 4 km/h 6 km/h 88% 0.00 mm 0.00 W/m2 unknown
03:24 11.9 °C 9.9 °C 1008.2 hPa SE 4 km/h 6 km/h 88% 0.00 mm 0.00 W/m2 unknown
03:29 12.0 °C 9.9 °C 1008.2 hPa SE 2 km/h 5 km/h 87% 0.00 mm 0.00 W/m2 unknown
03:34 11.9 °C 9.8 °C 1008.2 hPa SE 2 km/h 3 km/h 87% 0.00 mm 0.00 W/m2 unknown
03:39 12.0 °C 9.9 °C 1008.1 hPa SE 2 km/h 4 km/h 87% 0.00 mm 0.00 W/m2 unknown
03:44 12.0 °C 9.9 °C 1008.2 hPa SE 2 km/h 4 km/h 87% 0.00 mm 0.00 W/m2 unknown
03:49 11.9 °C 9.8 °C 1008.3 hPa SE 2 km/h 3 km/h 87% 0.00 mm 0.00 W/m2 unknown
03:54 11.8 °C 9.7 °C 1008.3 hPa SE 4 km/h 5 km/h 88% 0.00 mm 0.00 W/m2 unknown
03:59 11.6 °C 9.7 °C 1008.5 hPa SE 6 km/h 6 km/h 88% 0.00 mm 0.00 W/m2 unknown
04:04 11.6 °C 9.7 °C 1008.6 hPa ESE 4 km/h 6 km/h 88% 0.00 mm 0.00 W/m2 unknown
04:09 11.7 °C 9.8 °C 1008.6 hPa ENE 9 km/h 13 km/h 89% 0.00 mm 0.00 W/m2 unknown
04:14 11.8 °C 10.1 °C 1008.7 hPa ENE 12 km/h 15 km/h 89% 0.00 mm 0.00 W/m2 unknown
04:19 11.9 °C 10.1 °C 1008.8 hPa East 11 km/h 15 km/h 89% 0.00 mm 0.00 W/m2 unknown
04:24 11.9 °C 9.9 °C 1008.8 hPa East 11 km/h 15 km/h 88% 0.00 mm 0.00 W/m2 unknown
04:29 11.9 °C 9.8 °C 1008.8 hPa East 9 km/h 13 km/h 87% 0.00 mm 0.00 W/m2 unknown
04:34 12.0 °C 9.9 °C 1008.8 hPa ENE 9 km/h 13 km/h 87% 0.00 mm 0.00 W/m2 unknown
04:39 12.1 °C 9.9 °C 1008.9 hPa East 10 km/h 13 km/h 87% 0.00 mm 0.00 W/m2 unknown
04:44 12.2 °C 10.1 °C 1008.9 hPa East 11 km/h 15 km/h 87% 0.00 mm 0.00 W/m2 unknown
04:49 12.2 °C 10.1 °C 1008.9 hPa East 11 km/h 17 km/h 87% 0.00 mm 0.00 W/m2 unknown
04:54 12.3 °C 10.2 °C 1008.9 hPa East 13 km/h 17 km/h 87% 0.00 mm 0.00 W/m2 unknown
04:59 12.3 °C 10.2 °C 1009.0 hPa East 10 km/h 16 km/h 87% 0.00 mm 0.00 W/m2 unknown
05:04 12.3 °C 10.2 °C 1009.0 hPa East 11 km/h 19 km/h 87% 0.00 mm 0.00 W/m2 unknown
05:09 12.3 °C 10.2 °C 1009.0 hPa East 13 km/h 17 km/h 87% 0.00 mm 0.00 W/m2 unknown
05:14 12.3 °C 10.2 °C 1009.1 hPa East 13 km/h 17 km/h 87% 0.00 mm 0.00 W/m2 unknown
05:19 12.3 °C 10.2 °C 1009.1 hPa East 11 km/h 16 km/h 87% 0.00 mm 0.00 W/m2 unknown
05:24 12.3 °C 10.2 °C 1009.1 hPa ENE 11 km/h 15 km/h 87% 0.00 mm 0.00 W/m2 unknown
05:29 12.2 °C 10.1 °C 1009.2 hPa ENE 10 km/h 15 km/h 87% 0.00 mm 0.00 W/m2 unknown
05:34 12.2 °C 10.1 °C 1009.3 hPa ENE 11 km/h 17 km/h 87% 0.00 mm 0.00 W/m2 unknown
05:39 12.2 °C 10.1 °C 1009.3 hPa East 10 km/h 16 km/h 87% 0.00 mm 0.00 W/m2 unknown
05:44 12.2 °C 10.1 °C 1009.3 hPa ENE 12 km/h 15 km/h 87% 0.00 mm 0.00 W/m2 unknown
05:49 12.2 °C 10.1 °C 1009.4 hPa ENE 11 km/h 17 km/h 87% 0.00 mm 0.00 W/m2 unknown
05:54 12.1 °C 10.0 °C 1009.6 hPa ENE 11 km/h 16 km/h 87% 0.00 mm 0.00 W/m2 unknown
05:59 12.2 °C 10.0 °C 1009.6 hPa ENE 11 km/h 16 km/h 87% 0.00 mm 0.00 W/m2 unknown
06:04 12.3 °C 10.0 °C 1009.7 hPa ENE 19 km/h 24 km/h 86% 0.00 mm 0.00 W/m2 unknown
06:09 12.6 °C 10.1 °C 1009.8 hPa ENE 13 km/h 24 km/h 85% 0.00 mm 0.00 W/m2 unknown
06:14 12.8 °C 10.1 °C 1009.8 hPa NE 15 km/h 23 km/h 84% 0.00 mm 5.00 W/m2 unknown
06:19 12.8 °C 10.0 °C 1009.8 hPa ENE 11 km/h 23 km/h 83% 0.00 mm 9.00 W/m2 unknown
06:24 12.8 °C 10.0 °C 1009.9 hPa ENE 11 km/h 19 km/h 83% 0.00 mm 12.00 W/m2 unknown
06:29 12.8 °C 10.0 °C 1009.9 hPa ENE 10 km/h 19 km/h 83% 0.00 mm 18.00 W/m2 unknown
06:34 12.8 °C 9.8 °C 1009.9 hPa ENE 14 km/h 23 km/h 82% 0.00 mm 23.00 W/m2 unknown
06:39 12.9 °C 9.7 °C 1010.0 hPa ENE 15 km/h 23 km/h 81% 0.00 mm 32.00 W/m2 unknown
06:44 12.8 °C 9.7 °C 1010.1 hPa ENE 15 km/h 23 km/h 81% 0.00 mm 37.00 W/m2 unknown
06:49 12.8 °C 9.6 °C 1010.1 hPa ENE 17 km/h 21 km/h 81% 0.00 mm 42.00 W/m2 unknown
06:54 12.9 °C 9.5 °C 1010.1 hPa ENE 20 km/h 28 km/h 80% 0.00 mm 49.00 W/m2 unknown
06:59 12.9 °C 9.5 °C 1010.3 hPa East 15 km/h 27 km/h 80% 0.00 mm 60.00 W/m2 unknown
07:04 13.0 °C 9.4 °C 1010.4 hPa ENE 16 km/h 24 km/h 79% 0.00 mm 62.00 W/m2 unknown
07:09 13.0 °C 9.4 °C 1010.5 hPa East 16 km/h 21 km/h 79% 0.00 mm 56.00 W/m2 unknown
07:14 13.0 °C 9.4 °C 1010.6 hPa ENE 15 km/h 23 km/h 79% 0.00 mm 58.00 W/m2 unknown
07:19 13.1 °C 9.4 °C 1010.7 hPa East 17 km/h 23 km/h 79% 0.00 mm 60.00 W/m2 unknown
07:24 13.1 °C 9.5 °C 1010.7 hPa East 18 km/h 24 km/h 79% 0.00 mm 62.00 W/m2 unknown
07:29 13.1 °C 9.3 °C 1010.8 hPa East 17 km/h 24 km/h 78% 0.00 mm 65.00 W/m2 unknown
07:34 13.1 °C 9.3 °C 1010.9 hPa ENE 17 km/h 26 km/h 78% 0.00 mm 67.00 W/m2 unknown
07:39 13.2 °C 9.4 °C 1011.0 hPa ENE 16 km/h 26 km/h 78% 0.00 mm 69.00 W/m2 unknown
07:44 13.2 °C 9.4 °C 1011.0 hPa ENE 17 km/h 26 km/h 78% 0.00 mm 69.00 W/m2 unknown
07:49 13.2 °C 9.3 °C 1011.1 hPa ENE 15 km/h 24 km/h 77% 0.00 mm 77.00 W/m2 unknown
07:54 13.2 °C 9.3 °C 1011.2 hPa ENE 14 km/h 23 km/h 77% 0.00 mm 118.00 W/m2 unknown
07:59 13.4 °C 9.4 °C 1011.3 hPa ENE 16 km/h 23 km/h 77% 0.00 mm 174.00 W/m2 unknown
08:04 13.7 °C 9.4 °C 1011.3 hPa East 18 km/h 24 km/h 77% 0.00 mm 193.00 W/m2 unknown
08:09 13.7 °C 9.4 °C 1011.4 hPa East 19 km/h 24 km/h 75% 0.00 mm 163.00 W/m2 unknown
08:14 13.7 °C 9.3 °C 1011.5 hPa East 18 km/h 24 km/h 75% 0.00 mm 135.00 W/m2 unknown
08:19 13.7 °C 9.3 °C 1011.6 hPa East 18 km/h 24 km/h 75% 0.00 mm 121.00 W/m2 unknown
08:24 13.7 °C 9.1 °C 1011.7 hPa East 18 km/h 24 km/h 74% 0.00 mm 132.00 W/m2 unknown
08:29 13.7 °C 9.2 °C 1011.7 hPa East 16 km/h 24 km/h 74% 0.00 mm 155.00 W/m2 unknown
08:34 13.7 °C 9.4 °C 1011.7 hPa East 19 km/h 26 km/h 75% 0.00 mm 167.00 W/m2 unknown
08:39 13.8 °C 9.2 °C 1011.7 hPa ESE 16 km/h 26 km/h 74% 0.00 mm 165.00 W/m2 unknown
08:44 13.8 °C 9.2 °C 1011.7 hPa East 17 km/h 23 km/h 74% 0.00 mm 123.00 W/m2 unknown
08:49 13.7 °C 9.4 °C 1011.8 hPa East 17 km/h 24 km/h 75% 0.00 mm 149.00 W/m2 unknown
08:54 13.8 °C 9.4 °C 1011.8 hPa East 16 km/h 24 km/h 75% 0.00 mm 186.00 W/m2 unknown
08:59 13.9 °C 9.6 °C 1011.9 hPa East 13 km/h 19 km/h 75% 0.00 mm 186.00 W/m2 unknown
09:04 14.1 °C 9.7 °C 1011.9 hPa East 12 km/h 19 km/h 75% 0.00 mm 220.00 W/m2 unknown
09:09 14.3 °C 9.9 °C 1012.0 hPa East 11 km/h 17 km/h 75% 0.00 mm 218.00 W/m2 unknown
09:14 14.3 °C 9.9 °C 1012.0 hPa East 17 km/h 21 km/h 75% 0.00 mm 211.00 W/m2 unknown
09:19 14.3 °C 9.7 °C 1012.1 hPa East 15 km/h 21 km/h 74% 0.00 mm 239.00 W/m2 unknown
09:24 14.4 °C 9.9 °C 1012.1 hPa East 18 km/h 24 km/h 75% 0.00 mm 258.00 W/m2 unknown
09:29 14.3 °C 9.6 °C 1012.2 hPa East 21 km/h 26 km/h 73% 0.00 mm 234.00 W/m2 unknown
09:34 14.3 °C 9.5 °C 1012.2 hPa East 20 km/h 28 km/h 73% 0.00 mm 313.00 W/m2 unknown
09:39 14.6 °C 10.0 °C 1012.2 hPa East 19 km/h 27 km/h 74% 0.00 mm 506.00 W/m2 unknown
09:44 14.9 °C 10.0 °C 1012.3 hPa East 17 km/h 24 km/h 74% 0.00 mm 557.00 W/m2 unknown
09:49 15.2 °C 10.3 °C 1012.4 hPa East 21 km/h 26 km/h 73% 0.00 mm 584.00 W/m2 unknown
09:54 15.2 °C 9.9 °C 1012.4 hPa East 21 km/h 26 km/h 71% 0.00 mm 301.00 W/m2 unknown
09:59 15.0 °C 9.6 °C 1012.4 hPa ESE 17 km/h 24 km/h 70% 0.00 mm 578.00 W/m2 unknown
10:04 15.2 °C 9.9 °C 1012.5 hPa East 19 km/h 28 km/h 71% 0.00 mm 531.00 W/m2 unknown
10:09 15.2 °C 9.6 °C 1012.5 hPa East 20 km/h 27 km/h 70% 0.00 mm 747.00 W/m2 unknown
10:14 15.1 °C 9.6 °C 1012.3 hPa East 19 km/h 26 km/h 70% 0.00 mm 747.00 W/m2 unknown
10:19 15.2 °C 9.9 °C 1012.5 hPa East 20 km/h 24 km/h 71% 0.00 mm 577.00 W/m2 unknown
10:24 15.6 °C 10.1 °C 1012.6 hPa ESE 19 km/h 24 km/h 70% 0.00 mm 837.00 W/m2 unknown
10:29 15.7 °C 9.9 °C 1012.6 hPa East 17 km/h 24 km/h 69% 0.00 mm 837.00 W/m2 unknown
10:34 15.7 °C 9.9 °C 1012.6 hPa East 19 km/h 30 km/h 69% 0.00 mm 373.00 W/m2 unknown
10:39 15.4 °C 9.8 °C 1012.6 hPa East 22 km/h 30 km/h 69% 0.00 mm 401.00 W/m2 unknown
10:44 15.4 °C 9.7 °C 1012.5 hPa East 21 km/h 29 km/h 69% 0.00 mm 729.00 W/m2 unknown
10:49 15.8 °C 10.2 °C 1012.5 hPa East 22 km/h 27 km/h 70% 0.00 mm 747.00 W/m2 unknown
10:54 16.1 °C 10.2 °C 1012.6 hPa East 24 km/h 34 km/h 69% 0.00 mm 749.00 W/m2 unknown
10:59 16.1 °C 10.0 °C 1012.6 hPa East 24 km/h 34 km/h 67% 0.00 mm 754.00 W/m2 unknown
11:04 16.1 °C 9.9 °C 1012.5 hPa East 28 km/h 35 km/h 68% 0.00 mm 754.00 W/m2 unknown
11:09 15.7 °C 10.1 °C 1012.5 hPa ESE 24 km/h 32 km/h 69% 0.00 mm 770.00 W/m2 unknown
11:14 16.6 °C 10.9 °C 1012.4 hPa East 22 km/h 35 km/h 70% 0.00 mm 770.00 W/m2 unknown
11:19 16.6 °C 10.7 °C 1012.4 hPa East 25 km/h 35 km/h 69% 0.00 mm 740.00 W/m2 unknown
11:24 16.8 °C 10.8 °C 1012.3 hPa East 23 km/h 35 km/h 69% 0.00 mm 742.00 W/m2 unknown
11:29 16.8 °C 10.8 °C 1012.3 hPa East 25 km/h 39 km/h 68% 0.00 mm 772.00 W/m2 unknown
11:34 16.7 °C 10.6 °C 1012.4 hPa East 24 km/h 39 km/h 68% 0.00 mm 766.00 W/m2 unknown
11:39 16.7 °C 11.0 °C 1012.6 hPa East 26 km/h 34 km/h 69% 0.00 mm 780.00 W/m2 unknown
11:44 16.8 °C 11.0 °C 1012.6 hPa ESE 23 km/h 34 km/h 69% 0.00 mm 770.00 W/m2 unknown
11:49 17.0 °C 11.1 °C 1012.7 hPa East 21 km/h 29 km/h 68% 0.00 mm 777.00 W/m2 unknown
11:54 17.1 °C 11.1 °C 1012.7 hPa East 23 km/h 30 km/h 68% 0.00 mm 795.00 W/m2 unknown
11:59 17.1 °C 11.1 °C 1012.5 hPa ESE 20 km/h 29 km/h 68% 0.00 mm 809.00 W/m2 unknown
12:04 17.0 °C 10.8 °C 1012.4 hPa East 22 km/h 28 km/h 67% 0.00 mm 823.00 W/m2 unknown
12:09 17.4 °C 11.3 °C 1012.5 hPa ESE 20 km/h 28 km/h 68% 0.00 mm 809.00 W/m2 unknown
12:14 17.4 °C 11.1 °C 1012.5 hPa East 23 km/h 32 km/h 67% 0.00 mm 773.00 W/m2 unknown
12:19 17.3 °C 11.4 °C 1012.3 hPa East 21 km/h 32 km/h 68% 0.00 mm 779.00 W/m2 unknown
12:24 17.5 °C 11.3 °C 1012.2 hPa East 18 km/h 26 km/h 67% 0.00 mm 803.00 W/m2 unknown
12:29 17.6 °C 11.3 °C 1012.3 hPa East 17 km/h 27 km/h 67% 0.00 mm 821.00 W/m2 unknown
12:34 17.7 °C 11.4 °C 1012.2 hPa East 22 km/h 29 km/h 67% 0.00 mm 844.00 W/m2 unknown
12:39 17.7 °C 11.3 °C 1012.0 hPa East 23 km/h 30 km/h 66% 0.00 mm 788.00 W/m2 unknown
12:44 17.9 °C 11.6 °C 1012.0 hPa East 22 km/h 32 km/h 67% 0.00 mm 826.00 W/m2 unknown
12:49 18.1 °C 11.6 °C 1011.8 hPa ENE 20 km/h 32 km/h 66% 0.00 mm 837.00 W/m2 unknown
12:54 18.2 °C 11.8 °C 1011.7 hPa East 25 km/h 30 km/h 66% 0.00 mm 846.00 W/m2 unknown
12:59 18.1 °C 11.5 °C 1011.5 hPa East 24 km/h 30 km/h 66% 0.00 mm 754.00 W/m2 unknown
13:04 18.1 °C 11.4 °C 1011.5 hPa East 24 km/h 35 km/h 65% 0.00 mm 786.00 W/m2 unknown
13:09 18.4 °C 11.7 °C 1011.4 hPa East 20 km/h 28 km/h 65% 0.00 mm 679.00 W/m2 unknown
13:14 18.5 °C 11.8 °C 1011.4 hPa East 21 km/h 28 km/h 65% 0.00 mm 679.00 W/m2 unknown
13:19 18.6 °C 11.8 °C 1011.4 hPa East 22 km/h 30 km/h 65% 0.00 mm 554.00 W/m2 unknown
13:24 18.6 °C 11.4 °C 1011.6 hPa East 22 km/h 30 km/h 63% 0.00 mm 476.00 W/m2 unknown
13:29 19.1 °C 12.4 °C 1011.6 hPa East 19 km/h 29 km/h 65% 0.00 mm 860.00 W/m2 unknown
13:34 19.1 °C 12.4 °C 1011.6 hPa ESE 17 km/h 24 km/h 65% 0.00 mm 881.00 W/m2 unknown
13:39 19.2 °C 12.0 °C 1011.6 hPa ENE 18 km/h 24 km/h 63% 0.00 mm 867.00 W/m2 unknown
13:44 19.3 °C 12.1 °C 1011.6 hPa ENE 17 km/h 23 km/h 63% 0.00 mm 861.00 W/m2 unknown
13:49 19.5 °C 12.3 °C 1011.6 hPa East 19 km/h 26 km/h 63% 0.00 mm 849.00 W/m2 unknown
13:54 19.4 °C 11.9 °C 1011.5 hPa ENE 19 km/h 26 km/h 62% 0.00 mm 853.00 W/m2 unknown
14:04 19.7 °C 12.0 °C 1011.5 hPa ENE 17 km/h 23 km/h 61% 0.00 mm 928.00 W/m2 unknown
14:09 19.7 °C 12.5 °C 1011.4 hPa East 19 km/h 24 km/h 63% 0.00 mm 951.00 W/m2 unknown
14:14 19.8 °C 12.5 °C 1011.3 hPa East 20 km/h 28 km/h 63% 0.00 mm 919.00 W/m2 unknown
14:19 19.7 °C 12.2 °C 1011.1 hPa East 20 km/h 28 km/h 62% 0.00 mm 835.00 W/m2 unknown
14:24 20.0 °C 12.6 °C 1011.1 hPa East 19 km/h 28 km/h 63% 0.00 mm 837.00 W/m2 unknown
14:29 20.1 °C 12.2 °C 1011.1 hPa ESE 16 km/h 27 km/h 61% 0.00 mm 833.00 W/m2 unknown
Stazione Meteorologica MeteoMincio Rivalta s/M (MN)
Con i complimenti di Weather Underground - 4 mb



GLOSSARIO METEOROLOGICO
Nube
Insieme di piccolissime particelle di acqua (liquida) o di ghiaccio, oppure dell'una e dell'altro insieme, in sospensione nell'atmosfera. Essa può anche contenere particelle d'acqua, allo stato liquido o solido, di dimensioni più grandi, e particelle provenienti, per esempio, da vapori industriali, da fumo, da polveri.
Share

Non seguire questo link o sarai bannato dal sito!